createdAt,value
2019-02-21T00:00:57.323Z,35.43
2019-02-21T00:03:26.736Z,31.87
2019-02-21T00:05:56.215Z,39.40
2019-02-21T00:08:25.380Z,34.53
2019-02-21T00:10:54.546Z,35.13
2019-02-21T00:13:23.742Z,34.57
2019-02-21T00:16:33.696Z,35.00
2019-02-21T00:19:02.856Z,30.80
2019-02-21T00:21:31.996Z,31.67
2019-02-21T00:24:01.118Z,33.57
2019-02-21T00:26:30.284Z,35.93
2019-02-21T00:28:59.519Z,33.93
2019-02-21T00:31:28.724Z,33.13
2019-02-21T00:33:57.858Z,32.73
2019-02-21T00:36:27.005Z,34.03
2019-02-21T00:38:56.260Z,30.47
2019-02-21T00:41:25.419Z,28.57
2019-02-21T00:43:54.727Z,33.27
2019-02-21T00:46:24.071Z,31.93
2019-02-21T00:48:53.195Z,32.73
2019-02-21T00:51:22.342Z,28.30
2019-02-21T00:53:51.460Z,31.20
2019-02-21T00:56:20.638Z,31.83
2019-02-21T00:58:51.291Z,30.47
2019-02-21T01:01:20.971Z,29.00
2019-02-21T01:03:50.296Z,30.73
2019-02-21T01:06:19.450Z,28.73
2019-02-21T01:08:48.970Z,31.70
2019-02-21T01:11:18.203Z,31.30
2019-02-21T01:13:47.435Z,31.03
2019-02-21T01:16:16.569Z,31.10
2019-02-21T01:18:45.698Z,34.17
2019-02-21T01:21:14.854Z,30.43
2019-02-21T01:23:44.097Z,31.80
2019-02-21T01:26:13.247Z,29.97
2019-02-21T01:28:42.394Z,29.30
2019-02-21T01:31:11.595Z,30.10
2019-02-21T01:33:40.761Z,27.70
2019-02-21T01:36:09.911Z,34.13
2019-02-21T01:38:39.166Z,27.13
2019-02-21T01:41:08.428Z,28.60
2019-02-21T01:43:37.544Z,32.77
2019-02-21T01:46:06.750Z,29.60
2019-02-21T01:48:35.945Z,30.67
2019-02-21T01:51:05.094Z,26.57
2019-02-21T01:53:34.230Z,27.23
2019-02-21T01:56:03.410Z,28.17
2019-02-21T01:58:32.559Z,26.70
2019-02-21T02:01:08.464Z,26.87
2019-02-21T02:03:32.911Z,26.57
2019-02-21T02:06:02.049Z,29.13
2019-02-21T02:08:31.174Z,26.10
2019-02-21T02:11:00.316Z,28.17
2019-02-21T02:13:29.468Z,28.70
2019-02-21T02:15:58.707Z,26.37
2019-02-21T02:18:27.851Z,26.93
2019-02-21T02:20:57.000Z,25.70
2019-02-21T02:23:26.147Z,26.00
2019-02-21T02:25:55.286Z,28.77
2019-02-21T02:28:24.511Z,24.80
2019-02-21T02:30:53.650Z,26.00
2019-02-21T02:33:22.839Z,26.10
2019-02-21T02:35:52.109Z,27.80
2019-02-21T02:38:21.235Z,26.07
2019-02-21T02:40:50.437Z,26.33
2019-02-21T02:43:19.905Z,26.30
2019-02-21T02:45:49.035Z,27.90
2019-02-21T02:48:18.177Z,26.57
2019-02-21T02:50:47.327Z,26.13
2019-02-21T02:53:16.494Z,29.87
2019-02-21T02:55:45.723Z,28.37
2019-02-21T02:58:14.935Z,29.63
2019-02-21T03:00:44.160Z,25.70
2019-02-21T03:03:13.296Z,30.13
2019-02-21T03:05:42.428Z,27.23
2019-02-21T03:08:11.621Z,25.87
2019-02-21T03:10:40.817Z,30.27
2019-02-21T03:13:09.976Z,27.07
2019-02-21T03:15:39.193Z,29.63
2019-02-21T03:18:08.331Z,28.87
2019-02-21T03:20:37.464Z,25.77
2019-02-21T03:23:06.617Z,30.73
2019-02-21T03:25:35.821Z,34.20
2019-02-21T03:28:05.007Z,30.33
2019-02-21T03:30:34.149Z,30.13
2019-02-21T03:33:03.318Z,29.57
2019-02-21T03:35:32.591Z,25.83
2019-02-21T03:38:01.823Z,29.30
2019-02-21T03:40:31.649Z,29.23
2019-02-21T03:43:00.795Z,30.27
2019-02-21T03:45:30.037Z,27.97
2019-02-21T03:47:59.335Z,27.93
2019-02-21T03:50:28.551Z,27.80
2019-02-21T03:52:57.873Z,29.70
2019-02-21T03:55:27.023Z,30.63
2019-02-21T03:57:56.182Z,34.97
2019-02-21T04:00:25.360Z,33.20
2019-02-21T04:02:54.588Z,27.63
2019-02-21T04:05:23.728Z,32.20
2019-02-21T04:07:52.982Z,26.93
2019-02-21T04:10:22.118Z,32.77
2019-02-21T04:12:51.330Z,29.33
2019-02-21T04:15:20.586Z,31.37
2019-02-21T04:17:49.755Z,30.33
2019-02-21T04:20:19.012Z,31.13
2019-02-21T04:22:48.202Z,29.70
2019-02-21T04:25:17.514Z,30.63
2019-02-21T04:27:47.026Z,32.07
2019-02-21T04:30:16.215Z,34.57
2019-02-21T04:32:45.390Z,30.43
2019-02-21T04:35:14.548Z,25.80
2019-02-21T04:37:43.742Z,29.77
2019-02-21T04:40:12.874Z,32.20
2019-02-21T04:42:42.052Z,31.30
2019-02-21T04:45:11.217Z,27.50
2019-02-21T04:47:40.391Z,30.77
2019-02-21T04:50:09.544Z,31.60
2019-02-21T04:52:38.716Z,30.20
2019-02-21T04:55:07.879Z,32.67
2019-02-21T04:57:37.214Z,27.60
2019-02-21T05:00:08.066Z,28.53
2019-02-21T05:02:37.305Z,32.13
2019-02-21T05:05:06.720Z,29.67
2019-02-21T05:07:35.866Z,29.60
2019-02-21T05:10:05.681Z,30.20
2019-02-21T05:12:34.835Z,30.80
2019-02-21T05:15:04.018Z,29.07
2019-02-21T05:17:33.230Z,30.73
2019-02-21T05:20:02.427Z,28.53
2019-02-21T05:22:31.589Z,28.43
2019-02-21T05:25:00.714Z,30.83
2019-02-21T05:27:36.466Z,30.00
2019-02-21T05:30:07.829Z,25.73
2019-02-21T05:32:59.063Z,29.03
2019-02-21T05:35:42.663Z,32.10
2019-02-21T05:38:21.934Z,37.30
2019-02-21T05:41:05.224Z,31.13
2019-02-21T05:43:52.345Z,31.73
2019-02-21T05:46:46.645Z,30.83
2019-02-21T05:49:31.198Z,34.90
2019-02-21T05:52:22.509Z,27.87
2019-02-21T05:55:22.914Z,33.60
2019-02-21T05:58:12.317Z,30.00
2019-02-21T06:01:05.769Z,32.57
2019-02-21T06:03:42.036Z,33.10
2019-02-21T06:06:28.553Z,29.97
2019-02-21T06:09:25.962Z,31.33
2019-02-21T06:12:14.194Z,31.73
2019-02-21T06:15:05.191Z,30.23
2019-02-21T06:17:52.190Z,33.63
2019-02-21T06:20:52.632Z,32.93
2019-02-21T06:23:30.877Z,33.20
2019-02-21T06:26:09.733Z,30.23
2019-02-21T06:28:49.686Z,29.37
2019-02-21T06:31:21.154Z,29.40
2019-02-21T06:33:50.888Z,29.43
2019-02-21T06:36:20.023Z,31.43
2019-02-21T06:38:49.186Z,29.63
2019-02-21T06:41:18.472Z,33.17
2019-02-21T06:43:47.714Z,35.50
2019-02-21T06:46:16.947Z,37.80
2019-02-21T06:48:46.094Z,41.40
2019-02-21T06:51:15.277Z,41.37
2019-02-21T06:53:44.607Z,41.63
2019-02-21T06:56:13.805Z,35.43
2019-02-21T06:58:43.011Z,38.37
2019-02-21T07:01:12.244Z,30.93
2019-02-21T07:03:41.459Z,30.87
2019-02-21T07:06:10.588Z,30.27
2019-02-21T07:08:40.202Z,26.60
2019-02-21T07:11:09.446Z,29.27
2019-02-21T07:13:38.691Z,27.70
2019-02-21T07:16:07.816Z,27.67
2019-02-21T07:18:37.242Z,27.20
2019-02-21T07:21:06.518Z,26.63
2019-02-21T07:23:43.028Z,25.40
2019-02-21T07:26:09.322Z,26.80
2019-02-21T07:28:38.472Z,28.97
2019-02-21T07:31:07.734Z,29.50
2019-02-21T07:33:36.998Z,26.07
2019-02-21T07:36:06.217Z,24.83
2019-02-21T07:38:35.337Z,28.07
2019-02-21T07:41:04.566Z,29.90
2019-02-21T07:43:34.263Z,22.60
2019-02-21T07:46:03.439Z,26.13
2019-02-21T07:48:32.772Z,24.30
2019-02-21T07:51:02.017Z,28.03
2019-02-21T07:53:32.013Z,22.77
2019-02-21T07:56:01.263Z,25.30
2019-02-21T07:58:30.480Z,24.47
2019-02-21T08:00:59.663Z,27.87
2019-02-21T08:03:35.788Z,24.27
2019-02-21T08:05:59.823Z,22.53
2019-02-21T08:08:28.963Z,21.90
2019-02-21T08:10:58.141Z,22.53
2019-02-21T08:13:27.302Z,24.13
2019-02-21T08:15:56.571Z,27.50
2019-02-21T08:18:25.739Z,28.10
2019-02-21T08:20:54.918Z,29.67
2019-02-21T08:23:24.080Z,26.73
2019-02-21T08:25:53.226Z,22.07
2019-02-21T08:28:22.543Z,20.93
2019-02-21T08:30:51.793Z,22.50
2019-02-21T08:33:38.574Z,22.43
2019-02-21T08:36:07.838Z,24.07
2019-02-21T08:38:37.061Z,21.00
2019-02-21T08:41:06.300Z,23.73
2019-02-21T08:43:37.306Z,18.53
2019-02-21T08:46:06.430Z,22.83
2019-02-21T08:48:35.648Z,18.77
2019-02-21T08:51:06.220Z,21.47
2019-02-21T08:53:35.651Z,24.03
2019-02-21T08:56:04.891Z,20.63
2019-02-21T08:58:34.077Z,20.30
2019-02-21T09:01:03.515Z,21.50
2019-02-21T09:03:32.728Z,21.87
2019-02-21T09:06:01.999Z,21.53
2019-02-21T09:08:34.960Z,22.80
2019-02-21T09:11:04.033Z,21.17
2019-02-21T09:13:32.992Z,23.00
2019-02-21T09:16:02.122Z,22.13
2019-02-21T09:18:31.260Z,21.93
2019-02-21T09:21:00.487Z,28.20
2019-02-21T09:23:29.786Z,21.70
2019-02-21T09:25:58.932Z,28.47
2019-02-21T09:28:28.099Z,26.93
2019-02-21T09:30:58.815Z,24.50
2019-02-21T09:33:28.080Z,24.50
2019-02-21T09:35:57.274Z,23.97
2019-02-21T09:38:26.440Z,28.13
2019-02-21T09:40:55.751Z,30.67
2019-02-21T09:43:25.353Z,29.70
2019-02-21T09:45:54.519Z,25.57
2019-02-21T09:48:23.724Z,24.67
2019-02-21T09:50:53.054Z,25.27
2019-02-21T09:53:22.334Z,23.93
2019-02-21T09:55:51.530Z,24.17
2019-02-21T09:58:20.714Z,23.37
2019-02-21T10:00:51.402Z,25.10
2019-02-21T10:03:20.589Z,23.77
2019-02-21T10:05:49.988Z,23.33
2019-02-21T10:08:21.868Z,24.57
2019-02-21T10:10:50.287Z,22.00
2019-02-21T10:13:19.551Z,22.83
2019-02-21T10:15:48.745Z,22.37
2019-02-21T10:18:18.064Z,22.57
2019-02-21T10:20:47.663Z,22.67
2019-02-21T10:23:16.808Z,20.00
2019-02-21T10:25:46.016Z,23.07
2019-02-21T10:28:15.242Z,19.80
2019-02-21T10:30:44.458Z,21.93
2019-02-21T10:33:13.694Z,23.47
2019-02-21T10:35:42.906Z,21.20
2019-02-21T10:38:12.095Z,22.60
2019-02-21T10:40:41.278Z,23.27
2019-02-21T10:43:10.478Z,21.77
2019-02-21T10:45:47.397Z,18.93
2019-02-21T10:48:10.605Z,20.87
2019-02-21T10:50:39.747Z,21.70
2019-02-21T10:53:08.955Z,19.77
2019-02-21T10:55:57.322Z,19.30
2019-02-21T10:58:26.501Z,19.77
2019-02-21T11:00:55.660Z,18.03
2019-02-21T11:03:24.832Z,20.67
2019-02-21T11:05:54.096Z,15.87
2019-02-21T11:08:23.282Z,19.27
2019-02-21T11:10:53.013Z,22.87
2019-02-21T11:13:22.221Z,18.00
2019-02-21T11:15:51.582Z,18.83
2019-02-21T11:18:20.761Z,22.03
2019-02-21T11:20:49.939Z,18.23
2019-02-21T11:23:19.223Z,17.80
2019-02-21T11:25:48.374Z,18.43
2019-02-21T11:28:17.616Z,19.30
2019-02-21T11:30:47.059Z,20.03
2019-02-21T11:33:16.225Z,20.20
2019-02-21T11:35:45.491Z,17.90
2019-02-21T11:38:14.668Z,18.13
2019-02-21T11:40:43.862Z,16.77
2019-02-21T11:43:13.161Z,20.70
2019-02-21T11:45:53.192Z,18.33
2019-02-21T11:48:13.310Z,20.33
2019-02-21T11:50:42.459Z,20.60
2019-02-21T11:53:11.617Z,17.93
2019-02-21T11:55:40.802Z,16.80
2019-02-21T11:58:09.952Z,17.50
2019-02-21T12:00:39.893Z,17.00
2019-02-21T12:03:09.093Z,16.60
2019-02-21T12:05:38.287Z,17.13
2019-02-21T12:08:07.457Z,17.43
2019-02-21T12:10:36.620Z,17.57
2019-02-21T12:13:05.784Z,16.97
2019-02-21T12:15:35.238Z,19.23
2019-02-21T12:18:04.439Z,18.07
2019-02-21T12:20:33.642Z,18.50
2019-02-21T12:23:02.863Z,18.33
2019-02-21T12:25:32.121Z,18.30
2019-02-21T12:28:01.643Z,15.63
2019-02-21T12:30:33.291Z,16.30
2019-02-21T12:33:01.764Z,19.87
2019-02-21T12:35:30.935Z,19.50
2019-02-21T12:38:00.139Z,17.47
2019-02-21T12:40:29.356Z,16.67
2019-02-21T12:42:58.518Z,21.90
2019-02-21T12:45:30.043Z,19.83
2019-02-21T12:47:58.755Z,17.37
2019-02-21T12:50:28.094Z,18.13
2019-02-21T12:52:57.532Z,16.93
2019-02-21T12:55:31.228Z,16.00
2019-02-21T12:57:57.640Z,17.43
2019-02-21T13:00:27.062Z,16.97
2019-02-21T13:02:56.473Z,15.60
2019-02-21T13:05:25.726Z,18.00
2019-02-21T13:07:54.898Z,19.27
2019-02-21T13:10:24.391Z,18.20
2019-02-21T13:12:53.657Z,16.83
2019-02-21T13:15:22.881Z,15.33
2019-02-21T13:17:52.073Z,17.43
2019-02-21T13:20:21.750Z,16.60
2019-02-21T13:22:50.995Z,16.77
2019-02-21T13:25:20.170Z,12.43
2019-02-21T13:27:49.338Z,17.47
2019-02-21T13:30:18.484Z,18.10
2019-02-21T13:32:47.734Z,15.73
2019-02-21T13:35:16.979Z,15.07
2019-02-21T13:37:46.117Z,15.00
2019-02-21T13:40:15.795Z,15.63
2019-02-21T13:42:44.968Z,14.97
2019-02-21T13:45:17.516Z,18.23
2019-02-21T13:47:46.099Z,17.47
2019-02-21T13:50:16.821Z,15.97
2019-02-21T13:52:45.974Z,17.73
2019-02-21T13:55:15.127Z,19.77
2019-02-21T13:57:44.301Z,15.73
2019-02-21T14:00:17.097Z,14.50
2019-02-21T14:02:46.745Z,17.63
2019-02-21T14:05:16.020Z,17.80
2019-02-21T14:07:45.194Z,32.23
2019-02-21T14:10:14.684Z,19.40
2019-02-21T14:12:43.986Z,16.47
2019-02-21T14:15:15.974Z,17.07
2019-02-21T14:17:46.649Z,14.40
2019-02-21T14:20:16.239Z,15.73
2019-02-21T14:22:45.406Z,17.33
2019-02-21T14:25:14.622Z,16.77
2019-02-21T14:27:43.787Z,14.83
2019-02-21T14:30:16.564Z,16.03
2019-02-21T14:32:45.831Z,16.83
2019-02-21T14:35:15.859Z,20.57
2019-02-21T14:37:45.322Z,17.13
2019-02-21T14:40:14.834Z,16.17
2019-02-21T14:42:43.988Z,17.90
2019-02-21T14:45:16.949Z,15.07
2019-02-21T14:47:46.187Z,19.50
2019-02-21T14:50:16.067Z,19.50
2019-02-21T14:52:45.321Z,16.70
2019-02-21T14:55:15.290Z,20.30
2019-02-21T14:57:44.582Z,24.23
2019-02-21T15:00:20.191Z,16.47
2019-02-21T15:02:49.719Z,19.13
2019-02-21T15:05:20.055Z,22.27
2019-02-21T15:07:49.233Z,19.13
2019-02-21T15:10:18.397Z,19.83
2019-02-21T15:12:47.831Z,19.07
2019-02-21T15:15:18.133Z,18.90
2019-02-21T15:17:47.410Z,20.90
2019-02-21T15:20:17.440Z,19.43
2019-02-21T15:22:46.623Z,18.23
2019-02-21T15:25:16.048Z,19.13
2019-02-21T15:27:45.407Z,18.60
2019-02-21T15:30:17.010Z,18.80
2019-02-21T15:32:46.250Z,17.70
2019-02-21T15:35:15.417Z,20.87
2019-02-21T15:37:45.204Z,16.93
2019-02-21T15:40:14.825Z,18.43
2019-02-21T15:42:44.065Z,19.30
2019-02-21T15:45:22.947Z,18.70
2019-02-21T15:47:46.744Z,17.13
2019-02-21T15:50:15.988Z,18.33
2019-02-21T15:52:46.632Z,17.00
2019-02-21T15:55:16.545Z,21.63
2019-02-21T15:57:46.203Z,18.63
2019-02-21T16:00:17.808Z,17.23
2019-02-21T16:02:47.046Z,21.37
2019-02-21T16:05:16.547Z,19.13
2019-02-21T16:07:45.889Z,16.87
2019-02-21T16:10:17.850Z,18.40
2019-02-21T16:12:47.517Z,17.43
2019-02-21T16:15:17.601Z,20.27
2019-02-21T16:17:46.754Z,20.47
2019-02-21T16:20:16.545Z,23.00
2019-02-21T16:22:49.297Z,21.70
2019-02-21T16:25:20.159Z,20.03
2019-02-21T16:27:49.328Z,23.20
2019-02-21T16:30:18.612Z,19.80
2019-02-21T16:32:47.964Z,23.00
2019-02-21T16:35:17.201Z,20.57
2019-02-21T16:37:46.501Z,19.37
2019-02-21T16:40:15.805Z,19.10
2019-02-21T16:42:44.973Z,18.73
2019-02-21T16:45:15.129Z,25.53
2019-02-21T16:47:44.355Z,20.93
2019-02-21T16:50:14.094Z,24.33
2019-02-21T16:52:43.618Z,21.93
2019-02-21T16:55:15.323Z,21.13
2019-02-21T16:57:44.497Z,21.07
2019-02-21T17:00:15.441Z,25.50
2019-02-21T17:02:44.731Z,22.43
2019-02-21T17:05:14.659Z,23.37
2019-02-21T17:07:43.830Z,23.60
2019-02-21T17:10:14.000Z,23.33
2019-02-21T17:12:43.171Z,28.90
2019-02-21T17:15:13.219Z,20.80
2019-02-21T17:17:42.397Z,26.53
2019-02-21T17:20:13.726Z,26.43
2019-02-21T17:22:42.965Z,23.37
2019-02-21T17:25:13.740Z,27.50
2019-02-21T17:27:43.088Z,33.60
2019-02-21T17:30:14.726Z,29.27
2019-02-21T17:32:43.971Z,28.33
2019-02-21T17:35:13.147Z,26.70
2019-02-21T17:37:42.681Z,24.27
2019-02-21T17:40:14.592Z,24.33
2019-02-21T17:42:43.773Z,22.40
2019-02-21T17:45:13.642Z,25.63
2019-02-21T17:47:42.880Z,25.17
2019-02-21T17:50:13.563Z,23.50
2019-02-21T17:52:42.807Z,30.00
2019-02-21T17:55:12.161Z,25.10
2019-02-21T17:57:41.300Z,28.57
2019-02-21T18:00:17.112Z,27.37
2019-02-21T18:02:46.632Z,24.77
2019-02-21T18:05:15.816Z,29.03
2019-02-21T18:07:44.951Z,28.60
2019-02-21T18:10:14.525Z,30.50
2019-02-21T18:12:43.695Z,27.33
2019-02-21T18:15:13.700Z,33.13
2019-02-21T18:17:42.864Z,28.67
2019-02-21T18:20:12.765Z,26.33
2019-02-21T18:22:42.306Z,27.27
2019-02-21T18:25:15.007Z,28.73
2019-02-21T18:27:44.200Z,27.10
2019-02-21T18:30:14.865Z,25.90
2019-02-21T18:32:44.199Z,26.50
2019-02-21T18:35:13.818Z,26.70
2019-02-21T18:37:47.304Z,27.00
2019-02-21T18:40:18.474Z,30.37
2019-02-21T18:42:46.475Z,30.37
2019-02-21T18:45:15.842Z,31.20
2019-02-21T18:47:45.220Z,31.03
2019-02-21T18:50:18.131Z,29.77
2019-02-21T18:52:48.460Z,29.20
2019-02-21T18:55:17.652Z,32.57
2019-02-21T18:57:46.904Z,31.50
2019-02-21T19:00:18.860Z,32.50
2019-02-21T19:02:48.082Z,29.63
2019-02-21T19:05:17.272Z,33.90
2019-02-21T19:07:46.514Z,30.57
2019-02-21T19:10:16.831Z,28.97
2019-02-21T19:12:45.993Z,27.63
2019-02-21T19:15:16.659Z,31.67
2019-02-21T19:17:45.934Z,27.87
2019-02-21T19:20:15.635Z,28.23
2019-02-21T19:22:44.899Z,29.90
2019-02-21T19:25:14.689Z,31.77
2019-02-21T19:27:43.975Z,30.07
2019-02-21T19:30:20.196Z,29.73
2019-02-21T19:32:49.451Z,28.77
2019-02-21T19:35:19.061Z,27.00
2019-02-21T19:37:48.460Z,29.17
2019-02-21T19:40:17.737Z,30.03
2019-02-21T19:42:46.919Z,31.67
2019-02-21T19:45:16.620Z,28.60
2019-02-21T19:47:45.842Z,27.83
2019-02-21T19:50:15.515Z,32.20
2019-02-21T19:52:44.668Z,29.70
2019-02-21T19:55:15.114Z,29.17
2019-02-21T19:57:44.407Z,39.63
2019-02-21T20:00:17.741Z,32.87
2019-02-21T20:02:46.902Z,36.37
2019-02-21T20:05:16.529Z,33.83
2019-02-21T20:07:45.971Z,31.40
2019-02-21T20:10:15.837Z,27.07
2019-02-21T20:12:45.079Z,26.43
2019-02-21T20:15:14.975Z,31.03
2019-02-21T20:17:44.497Z,27.80
2019-02-21T20:20:15.432Z,29.63
2019-02-21T20:22:44.699Z,31.80
2019-02-21T20:25:14.044Z,30.03
2019-02-21T20:27:43.528Z,28.27
2019-02-21T20:30:14.808Z,32.93
2019-02-21T20:32:44.086Z,29.07
2019-02-21T20:35:13.347Z,27.37
2019-02-21T20:37:42.642Z,30.57
2019-02-21T20:40:12.201Z,30.93
2019-02-21T20:42:41.489Z,29.33
2019-02-21T20:45:10.968Z,32.43
2019-02-21T20:47:40.283Z,30.93
2019-02-21T20:50:10.382Z,32.03
2019-02-21T20:52:39.585Z,30.03
2019-02-21T20:55:09.697Z,28.37
2019-02-21T20:57:38.924Z,28.13
2019-02-21T21:00:10.984Z,27.97
2019-02-21T21:02:40.144Z,29.50
2019-02-21T21:05:09.555Z,30.43
2019-02-21T21:07:39.064Z,29.57
2019-02-21T21:10:10.635Z,26.90
2019-02-21T21:12:40.344Z,28.33
2019-02-21T21:15:11.037Z,30.87
2019-02-21T21:17:40.863Z,30.00
2019-02-21T21:20:16.563Z,30.40
2019-02-21T21:22:42.409Z,29.27
2019-02-21T21:25:15.108Z,29.93
2019-02-21T21:27:44.352Z,32.50
2019-02-21T21:30:14.675Z,28.93
2019-02-21T21:32:44.115Z,33.60
2019-02-21T21:35:13.821Z,32.63
2019-02-21T21:37:42.995Z,31.03
2019-02-21T21:40:13.575Z,30.30
2019-02-21T21:42:43.014Z,30.50
2019-02-21T21:45:14.703Z,31.33
2019-02-21T21:47:44.043Z,27.33
2019-02-21T21:50:15.046Z,33.37
2019-02-21T21:52:44.228Z,34.73
2019-02-21T21:55:13.365Z,34.90
2019-02-21T21:57:42.725Z,31.97
2019-02-21T22:00:18.013Z,34.27
2019-02-21T22:02:47.357Z,27.57
2019-02-21T22:05:16.505Z,33.93
2019-02-21T22:07:45.719Z,31.73
2019-02-21T22:10:15.565Z,32.13
2019-02-21T22:12:44.816Z,32.03
2019-02-21T22:15:14.702Z,29.80
2019-02-21T22:17:43.863Z,30.20
2019-02-21T22:20:13.075Z,32.73
2019-02-21T22:22:42.315Z,29.73
2019-02-21T22:25:12.015Z,33.73
2019-02-21T22:27:41.674Z,29.33
2019-02-21T22:30:14.169Z,30.50
